sensor_id;sensor_type;location;lat;lon;timestamp;pressure;altitude;pressure_sealevel;temperature;humidity
45253;BME280;63171;50.520;30.486;2023-07-20T00:00:11;99359.88;;;23.03;46.35
45253;BME280;63171;50.520;30.486;2023-07-20T00:02:35;99364.09;;;22.97;46.24
45253;BME280;63171;50.520;30.486;2023-07-20T00:03:25;99362.28;;;22.97;46.69
45253;BME280;63171;50.520;30.486;2023-07-20T00:04:14;99361.25;;;22.98;46.54
45253;BME280;63171;50.520;30.486;2023-07-20T00:05:06;99357.56;;;22.99;46.56
45253;BME280;63171;50.520;30.486;2023-07-20T00:05:56;99361.25;;;22.98;46.78
45253;BME280;63171;50.520;30.486;2023-07-20T00:06:45;99362.72;;;23.01;46.93
45253;BME280;63171;50.520;30.486;2023-07-20T00:07:36;99358.59;;;22.98;46.80
45253;BME280;63171;50.520;30.486;2023-07-20T00:08:26;99365.59;;;22.99;47.09
45253;BME280;63171;50.520;30.486;2023-07-20T00:09:16;99363.09;;;22.98;46.94
45253;BME280;63171;50.520;30.486;2023-07-20T00:10:09;99355.09;;;22.98;46.81
45253;BME280;63171;50.520;30.486;2023-07-20T00:10:58;99355.91;;;22.98;47.10
45253;BME280;63171;50.520;30.486;2023-07-20T00:11:49;99355.25;;;22.96;46.73
45253;BME280;63171;50.520;30.486;2023-07-20T00:12:40;99348.94;;;22.97;46.92
45253;BME280;63171;50.520;30.486;2023-07-20T00:13:30;99359.78;;;22.96;46.75
45253;BME280;63171;50.520;30.486;2023-07-20T00:14:20;99356.28;;;22.95;46.93
45253;BME280;63171;50.520;30.486;2023-07-20T00:15:11;99360.78;;;22.95;46.86
45253;BME280;63171;50.520;30.486;2023-07-20T00:16:01;99357.94;;;22.96;47.12
45253;BME280;63171;50.520;30.486;2023-07-20T00:16:52;99360.78;;;22.95;46.89
45253;BME280;63171;50.520;30.486;2023-07-20T00:17:45;99363.19;;;22.90;46.88
45253;BME280;63171;50.520;30.486;2023-07-20T00:18:35;99355.19;;;22.90;46.74
45253;BME280;63171;50.520;30.486;2023-07-20T00:19:26;99355.81;;;22.92;47.04
45253;BME280;63171;50.520;30.486;2023-07-20T00:20:16;99362.19;;;22.91;47.07
45253;BME280;63171;50.520;30.486;2023-07-20T00:21:07;99365.69;;;22.91;47.22
45253;BME280;63171;50.520;30.486;2023-07-20T00:21:57;99367.34;;;22.92;46.91
45253;BME280;63171;50.520;30.486;2023-07-20T00:22:48;99354.19;;;22.91;47.41
45253;BME280;63171;50.520;30.486;2023-07-20T00:23:40;99365.50;;;22.93;47.25
45253;BME280;63171;50.520;30.486;2023-07-20T00:24:30;99361.94;;;22.86;47.08
45253;BME280;63171;50.520;30.486;2023-07-20T00:25:23;99358.06;;;22.88;47.28
45253;BME280;63171;50.520;30.486;2023-07-20T00:26:13;99357.22;;;22.88;47.26
45253;BME280;63171;50.520;30.486;2023-07-20T00:27:04;99369.94;;;22.86;47.21
45253;BME280;63171;50.520;30.486;2023-07-20T00:27:54;99362.75;;;22.86;47.03
45253;BME280;63171;50.520;30.486;2023-07-20T00:28:44;99360.91;;;22.87;47.15
45253;BME280;63171;50.520;30.486;2023-07-20T00:29:34;99358.25;;;22.87;47.05
45253;BME280;63171;50.520;30.486;2023-07-20T00:30:26;99360.91;;;22.87;47.15
45253;BME280;63171;50.520;30.486;2023-07-20T00:31:16;99364.59;;;22.86;47.30
45253;BME280;63171;50.520;30.486;2023-07-20T00:32:07;99358.75;;;22.82;47.17
45253;BME280;63171;50.520;30.486;2023-07-20T00:32:57;99363.97;;;22.84;47.21
45253;BME280;63171;50.520;30.486;2023-07-20T00:33:47;99361.09;;;22.85;47.15
45253;BME280;63171;50.520;30.486;2023-07-20T00:34:37;99362.75;;;22.86;46.98
45253;BME280;63171;50.520;30.486;2023-07-20T00:35:28;99360.09;;;22.86;47.28
45253;BME280;63171;50.520;30.486;2023-07-20T00:36:17;99356.59;;;22.86;47.42
45253;BME280;63171;50.520;30.486;2023-07-20T00:37:07;99357.41;;;22.86;47.52
45253;BME280;63171;50.520;30.486;2023-07-20T00:37:58;99355.38;;;22.88;47.65
45253;BME280;63171;50.520;30.486;2023-07-20T00:38:48;99353.91;;;22.86;47.47
45253;BME280;63171;50.520;30.486;2023-07-20T00:39:39;99352.06;;;22.86;47.89
45253;BME280;63171;50.520;30.486;2023-07-20T00:40:36;99354.56;;;22.88;48.07
45253;BME280;63171;50.520;30.486;2023-07-20T00:41:26;99357.59;;;22.85;47.55
45253;BME280;63171;50.520;30.486;2023-07-20T00:42:19;99355.75;;;22.85;48.08
45253;BME280;63171;50.520;30.486;2023-07-20T00:43:09;99352.25;;;22.85;48.02
45253;BME280;63171;50.520;30.486;2023-07-20T00:43:58;99358.63;;;22.84;48.13
45253;BME280;63171;50.520;30.486;2023-07-20T00:44:50;99368.44;;;22.83;48.27
45253;BME280;63171;50.520;30.486;2023-07-20T00:45:40;99356.06;;;22.82;47.85
45253;BME280;63171;50.520;30.486;2023-07-20T00:46:30;99356.84;;;22.76;47.98
45253;BME280;63171;50.520;30.486;2023-07-20T00:47:23;99351.69;;;22.75;47.88
45253;BME280;63171;50.520;30.486;2023-07-20T00:48:14;99363.84;;;22.77;47.94
45253;BME280;63171;50.520;30.486;2023-07-20T00:49:06;99361.34;;;22.76;48.08
45253;BME280;63171;50.520;30.486;2023-07-20T00:49:57;99359.69;;;22.75;48.25
45253;BME280;63171;50.520;30.486;2023-07-20T00:50:47;99357.84;;;22.75;47.96
45253;BME280;63171;50.520;30.486;2023-07-20T00:51:37;99357.84;;;22.75;47.92
45253;BME280;63171;50.520;30.486;2023-07-20T00:52:28;99364.03;;;22.76;48.07
45253;BME280;63171;50.520;30.486;2023-07-20T00:53:18;99357.03;;;22.75;47.90
45253;BME280;63171;50.520;30.486;2023-07-20T00:54:08;99363.38;;;22.74;48.29
45253;BME280;63171;50.520;30.486;2023-07-20T00:54:59;99357.03;;;22.75;48.03
45253;BME280;63171;50.520;30.486;2023-07-20T00:55:50;99355.38;;;22.74;48.06
45253;BME280;63171;50.520;30.486;2023-07-20T00:56:40;99356.19;;;22.74;48.38
45253;BME280;63171;50.520;30.486;2023-07-20T00:57:30;99357.84;;;22.75;47.95
45253;BME280;63171;50.520;30.486;2023-07-20T00:58:20;99352.50;;;22.75;48.29
45253;BME280;63171;50.520;30.486;2023-07-20T00:59:11;99352.50;;;22.75;47.99
45253;BME280;63171;50.520;30.486;2023-07-20T01:00:02;99357.03;;;22.75;48.32
45253;BME280;63171;50.520;30.486;2023-07-20T01:00:52;99356.28;;;22.66;48.34
45253;BME280;63171;50.520;30.486;2023-07-20T01:01:42;99353.44;;;22.67;48.50
45253;BME280;63171;50.520;30.486;2023-07-20T01:02:33;99351.31;;;22.63;48.15
45253;BME280;63171;50.520;30.486;2023-07-20T01:03:23;99351.53;;;22.61;48.24
45253;BME280;63171;50.520;30.486;2023-07-20T01:04:14;99354.38;;;22.60;48.42
45253;BME280;63171;50.520;30.486;2023-07-20T01:05:06;99355.84;;;22.62;48.64
45253;BME280;63171;50.520;30.486;2023-07-20T01:06:04;99362.00;;;22.63;48.29
45253;BME280;63171;50.520;30.486;2023-07-20T01:07:03;99350.50;;;22.62;48.77
45253;BME280;63171;50.520;30.486;2023-07-20T01:08:00;99354.00;;;22.63;48.76
45253;BME280;63171;50.520;30.486;2023-07-20T01:09:00;99352.97;;;22.64;48.46
45253;BME280;63171;50.520;30.486;2023-07-20T01:10:00;99353.16;;;22.62;48.57
45253;BME280;63171;50.520;30.486;2023-07-20T01:10:55;99350.69;;;22.61;48.64
45253;BME280;63171;50.520;30.486;2023-07-20T01:11:53;99343.50;;;22.61;48.97
45253;BME280;63171;50.520;30.486;2023-07-20T01:12:47;99348.41;;;22.58;48.97
45253;BME280;63171;50.520;30.486;2023-07-20T01:13:37;99354.09;;;22.55;48.97
45253;BME280;63171;50.520;30.486;2023-07-20T01:14:27;99349.94;;;22.52;48.95
45253;BME280;63171;50.520;30.486;2023-07-20T01:15:18;99348.13;;;22.38;48.65
45253;BME280;63171;50.520;30.486;2023-07-20T01:16:08;99350.31;;;22.34;48.90
45253;BME280;63171;50.520;30.486;2023-07-20T01:16:58;99349.13;;;22.37;48.78
45253;BME280;63171;50.520;30.486;2023-07-20T01:17:49;99350.59;;;22.39;48.91
45253;BME280;63171;50.520;30.486;2023-07-20T01:18:39;99343.22;;;22.41;48.83
45253;BME280;63171;50.520;30.486;2023-07-20T01:19:29;99353.06;;;22.41;49.07
45253;BME280;63171;50.520;30.486;2023-07-20T01:20:21;99352.44;;;22.39;48.82
45253;BME280;63171;50.520;30.486;2023-07-20T01:21:18;99351.41;;;22.40;49.34
45253;BME280;63171;50.520;30.486;2023-07-20T01:22:30;99352.63;;;22.37;49.53
45253;BME280;63171;50.520;30.486;2023-07-20T01:23:39;99349.88;;;22.31;49.43
45253;BME280;63171;50.520;30.486;2023-07-20T01:25:00;99347.03;;;22.32;49.42
45253;BME280;63171;50.520;30.486;2023-07-20T01:26:07;99349.19;;;22.29;49.73
45253;BME280;63171;50.520;30.486;2023-07-20T01:27:23;99351.88;;;22.29;49.37
45253;BME280;63171;50.520;30.486;2023-07-20T01:28:31;99344.25;;;22.26;49.49
45253;BME280;63171;50.520;30.486;2023-07-20T01:29:40;99347.09;;;22.24;49.77
45253;BME280;63171;50.520;30.486;2023-07-20T01:30:52;99348.03;;;22.31;49.68
45253;BME280;63171;50.520;30.486;2023-07-20T01:31:49;99347.34;;;22.29;49.67
45253;BME280;63171;50.520;30.486;2023-07-20T01:32:43;99348.66;;;22.33;49.59
45253;BME280;63171;50.520;30.486;2023-07-20T01:33:34;99345.81;;;22.35;49.72
45253;BME280;63171;50.520;30.486;2023-07-20T01:34:24;99345.63;;;22.36;49.70
45253;BME280;63171;50.520;30.486;2023-07-20T01:35:16;99348.94;;;22.38;49.89
45253;BME280;63171;50.520;30.486;2023-07-20T01:36:07;99346.09;;;22.40;49.67
45253;BME280;63171;50.520;30.486;2023-07-20T01:36:59;99346.91;;;22.40;49.76
45253;BME280;63171;50.520;30.486;2023-07-20T01:37:51;99346.91;;;22.40;49.50
45253;BME280;63171;50.520;30.486;2023-07-20T01:38:41;99355.56;;;22.42;49.79
45253;BME280;63171;50.520;30.486;2023-07-20T01:39:33;99351.88;;;22.43;49.77
45253;BME280;63171;50.520;30.486;2023-07-20T01:40:24;99351.03;;;22.43;49.64
45253;BME280;63171;50.520;30.486;2023-07-20T01:41:16;99358.88;;;22.45;49.59
45253;BME280;63171;50.520;30.486;2023-07-20T01:42:07;99352.88;;;22.42;49.75
45253;BME280;63171;50.520;30.486;2023-07-20T01:42:57;99352.88;;;22.42;49.60
45253;BME280;63171;50.520;30.486;2023-07-20T01:43:48;99354.09;;;22.40;49.75
45253;BME280;63171;50.520;30.486;2023-07-20T01:44:39;99355.09;;;22.39;49.48
45253;BME280;63171;50.520;30.486;2023-07-20T01:45:29;99353.38;;;22.31;49.40
45253;BME280;63171;50.520;30.486;2023-07-20T01:46:20;99345.81;;;22.35;49.47
45253;BME280;63171;50.520;30.486;2023-07-20T01:47:12;99352.63;;;22.37;49.45
45253;BME280;63171;50.520;30.486;2023-07-20T01:48:03;99354.28;;;22.38;49.48
45253;BME280;63171;50.520;30.486;2023-07-20T01:48:54;99346.00;;;22.33;49.60
45253;BME280;63171;50.520;30.486;2023-07-20T01:49:44;99345.44;;;22.38;49.74
45253;BME280;63171;50.520;30.486;2023-07-20T01:50:34;99349.75;;;22.39;49.69
45253;BME280;63171;50.520;30.486;2023-07-20T01:51:24;99349.56;;;22.40;49.70
45253;BME280;63171;50.520;30.486;2023-07-20T01:52:15;99348.94;;;22.38;49.35
45253;BME280;63171;50.520;30.486;2023-07-20T01:53:05;99346.28;;;22.38;49.65
45253;BME280;63171;50.520;30.486;2023-07-20T01:53:54;99343.72;;;22.30;49.75
45253;BME280;63171;50.520;30.486;2023-07-20T01:54:45;99351.97;;;22.21;49.63
45253;BME280;63171;50.520;30.486;2023-07-20T01:55:34;99347.72;;;22.26;49.28
45253;BME280;63171;50.520;30.486;2023-07-20T01:56:24;99344.25;;;22.26;49.68
45253;BME280;63171;50.520;30.486;2023-07-20T01:57:15;99348.38;;;22.28;49.57
45253;BME280;63171;50.520;30.486;2023-07-20T01:58:04;99356.56;;;22.27;49.54
45253;BME280;63171;50.520;30.486;2023-07-20T01:58:55;99349.03;;;22.30;49.61
45253;BME280;63171;50.520;30.486;2023-07-20T01:59:46;99351.72;;;22.30;49.73
45253;BME280;63171;50.520;30.486;2023-07-20T02:00:36;99353.81;;;22.35;50.16
45253;BME280;63171;50.520;30.486;2023-07-20T02:01:26;99350.31;;;22.34;49.87
45253;BME280;63171;50.520;30.486;2023-07-20T02:02:19;99351.97;;;22.35;49.92
45253;BME280;63171;50.520;30.486;2023-07-20T02:03:10;99353.00;;;22.34;50.17
45253;BME280;63171;50.520;30.486;2023-07-20T02:04:01;99354.47;;;22.37;50.25
45253;BME280;63171;50.520;30.486;2023-07-20T02:04:52;99350.97;;;22.36;50.16
45253;BME280;63171;50.520;30.486;2023-07-20T02:05:42;99354.47;;;22.37;50.33
45253;BME280;63171;50.520;30.486;2023-07-20T02:06:33;99352.63;;;22.37;50.37
45253;BME280;63171;50.520;30.486;2023-07-20T02:07:24;99353.25;;;22.39;50.17
45253;BME280;63171;50.520;30.486;2023-07-20T02:08:14;99349.31;;;22.35;50.36
45253;BME280;63171;50.520;30.486;2023-07-20T02:09:04;99357.50;;;22.34;50.07
45253;BME280;63171;50.520;30.486;2023-07-20T02:09:55;99352.16;;;22.34;50.24
45253;BME280;63171;50.520;30.486;2023-07-20T02:10:47;99350.13;;;22.36;50.44
45253;BME280;63171;50.520;30.486;2023-07-20T02:11:37;99349.31;;;22.35;50.58
45253;BME280;63171;50.520;30.486;2023-07-20T02:12:27;99359.78;;;22.37;50.72
45253;BME280;63171;50.520;30.486;2023-07-20T02:13:18;99354.28;;;22.38;50.84
45253;BME280;63171;50.520;30.486;2023-07-20T02:14:08;99354.47;;;22.37;50.72
45253;BME280;63171;50.520;30.486;2023-07-20T02:14:59;99355.28;;;22.37;50.30
45253;BME280;63171;50.520;30.486;2023-07-20T02:15:49;99358.13;;;22.36;50.71
45253;BME280;63171;50.520;30.486;2023-07-20T02:16:40;99356.31;;;22.36;50.79
45253;BME280;63171;50.520;30.486;2023-07-20T02:17:31;99359.78;;;22.37;50.37
45253;BME280;63171;50.520;30.486;2023-07-20T02:18:21;99354.47;;;22.37;50.49
45253;BME280;63171;50.520;30.486;2023-07-20T02:19:14;99357.13;;;22.37;50.44
45253;BME280;63171;50.520;30.486;2023-07-20T02:20:05;99357.13;;;22.37;50.63
45253;BME280;63171;50.520;30.486;2023-07-20T02:20:58;99357.31;;;22.35;50.39
45253;BME280;63171;50.520;30.486;2023-07-20T02:21:48;99360.16;;;22.34;50.51
45253;BME280;63171;50.520;30.486;2023-07-20T02:22:39;99356.19;;;22.30;50.16
45253;BME280;63171;50.520;30.486;2023-07-20T02:23:29;99356.88;;;22.32;50.15
45253;BME280;63171;50.520;30.486;2023-07-20T02:24:20;99357.88;;;22.31;50.38
45253;BME280;63171;50.520;30.486;2023-07-20T02:25:10;99353.63;;;22.22;50.27
45253;BME280;63171;50.520;30.486;2023-07-20T02:25:59;99355.28;;;22.23;50.28
45253;BME280;63171;50.520;30.486;2023-07-20T02:26:50;99353.72;;;22.28;50.06
45253;BME280;63171;50.520;30.486;2023-07-20T02:27:40;99350.41;;;22.26;50.32
45253;BME280;63171;50.520;30.486;2023-07-20T02:28:30;99350.78;;;22.23;50.47
45253;BME280;63171;50.520;30.486;2023-07-20T02:29:21;99354.19;;;22.32;50.58
45253;BME280;63171;50.520;30.486;2023-07-20T02:30:11;99350.13;;;22.36;50.51
45253;BME280;63171;50.520;30.486;2023-07-20T02:31:00;99354.09;;;22.40;51.09
45253;BME280;63171;50.520;30.486;2023-07-20T02:31:51;99353.06;;;22.41;51.12
45253;BME280;63171;50.520;30.486;2023-07-20T02:32:42;99348.56;;;22.41;50.99
45253;BME280;63171;50.520;30.486;2023-07-20T02:33:35;99355.56;;;22.42;51.21
45253;BME280;63171;50.520;30.486;2023-07-20T02:34:24;99355.41;;;22.44;51.32
45253;BME280;63171;50.520;30.486;2023-07-20T02:35:15;99351.88;;;22.43;51.34
45253;BME280;63171;50.520;30.486;2023-07-20T02:36:06;99351.03;;;22.43;51.49
45253;BME280;63171;50.520;30.486;2023-07-20T02:36:56;99354.38;;;22.45;51.83
45253;BME280;63171;50.520;30.486;2023-07-20T02:37:47;99356.22;;;22.45;51.90
45253;BME280;63171;50.520;30.486;2023-07-20T02:38:38;99351.53;;;22.47;51.92
45253;BME280;63171;50.520;30.486;2023-07-20T02:39:28;99359.16;;;22.50;51.74
45253;BME280;63171;50.520;30.486;2023-07-20T02:40:18;99363.47;;;22.51;52.34
45253;BME280;63171;50.520;30.486;2023-07-20T02:41:10;99359.97;;;22.50;51.86
45253;BME280;63171;50.520;30.486;2023-07-20T02:42:00;99355.47;;;22.51;52.06
45253;BME280;63171;50.520;30.486;2023-07-20T02:42:52;99358.97;;;22.51;52.29
45253;BME280;63171;50.520;30.486;2023-07-20T02:43:42;99355.47;;;22.51;52.09
45253;BME280;63171;50.520;30.486;2023-07-20T02:44:33;99354.66;;;22.50;52.05
45253;BME280;63171;50.520;30.486;2023-07-20T02:45:22;99353.81;;;22.50;52.32
45253;BME280;63171;50.520;30.486;2023-07-20T02:46:12;99347.53;;;22.42;52.46
45253;BME280;63171;50.520;30.486;2023-07-20T02:47:03;99352.53;;;22.46;52.65
45253;BME280;63171;50.520;30.486;2023-07-20T02:47:54;99353.56;;;22.45;52.64
45253;BME280;63171;50.520;30.486;2023-07-20T02:48:45;99359.72;;;22.45;52.61
45253;BME280;63171;50.520;30.486;2023-07-20T02:49:35;99353.38;;;22.46;52.47
45253;BME280;63171;50.520;30.486;2023-07-20T02:50:25;99357.13;;;22.52;52.86
45253;BME280;63171;50.520;30.486;2023-07-20T02:51:15;99350.78;;;22.53;52.92
45253;BME280;63171;50.520;30.486;2023-07-20T02:52:05;99355.94;;;22.54;52.95
45253;BME280;63171;50.520;30.486;2023-07-20T02:52:56;99353.91;;;22.56;52.85
45253;BME280;63171;50.520;30.486;2023-07-20T02:53:46;99359.06;;;22.58;52.73
45253;BME280;63171;50.520;30.486;2023-07-20T02:54:37;99355.56;;;22.57;53.20
45253;BME280;63171;50.520;30.486;2023-07-20T02:55:26;99360.53;;;22.60;53.07
45253;BME280;63171;50.520;30.486;2023-07-20T02:56:16;99353.16;;;22.62;53.11
45253;BME280;63171;50.520;30.486;2023-07-20T02:57:07;99359.53;;;22.61;52.98
45253;BME280;63171;50.520;30.486;2023-07-20T02:57:57;99357.56;;;22.55;52.71
45253;BME280;63171;50.520;30.486;2023-07-20T02:58:48;99358.06;;;22.59;52.74
45253;BME280;63171;50.520;30.486;2023-07-20T02:59:38;99364.22;;;22.59;52.82
45253;BME280;63171;50.520;30.486;2023-07-20T03:00:28;99360.53;;;22.60;52.44
45253;BME280;63171;50.520;30.486;2023-07-20T03:01:19;99367.91;;;22.58;52.49
45253;BME280;63171;50.520;30.486;2023-07-20T03:02:09;99360.63;;;22.52;52.33
45253;BME280;63171;50.520;30.486;2023-07-20T03:03:00;99354.91;;;22.55;52.10
45253;BME280;63171;50.520;30.486;2023-07-20T03:04:42;99359.53;;;22.61;51.71
45253;BME280;63171;50.520;30.486;2023-07-20T03:05:32;99361.00;;;22.64;51.78
45253;BME280;63171;50.520;30.486;2023-07-20T03:06:22;99357.13;;;22.66;51.69
45253;BME280;63171;50.520;30.486;2023-07-20T03:07:12;99355.09;;;22.68;51.54
45253;BME280;63171;50.520;30.486;2023-07-20T03:08:03;99358.88;;;22.74;51.65
45253;BME280;63171;50.520;30.486;2023-07-20T03:08:53;99356.94;;;22.68;51.62
45253;BME280;63171;50.520;30.486;2023-07-20T03:09:44;99352.91;;;22.72;51.87
45253;BME280;63171;50.520;30.486;2023-07-20T03:10:38;99350.66;;;22.76;51.75
45253;BME280;63171;50.520;30.486;2023-07-20T03:11:28;99356.00;;;22.76;51.38
45253;BME280;63171;50.520;30.486;2023-07-20T03:12:21;99349.91;;;22.82;51.55
45253;BME280;63171;50.520;30.486;2023-07-20T03:13:11;99359.06;;;22.87;51.57
45253;BME280;63171;50.520;30.486;2023-07-20T03:14:03;99351.31;;;22.92;51.74
45253;BME280;63171;50.520;30.486;2023-07-20T03:14:53;99358.94;;;22.95;51.66
45253;BME280;63171;50.520;30.486;2023-07-20T03:15:46;99350.09;;;22.95;51.50
45253;BME280;63171;50.520;30.486;2023-07-20T03:16:36;99349.66;;;22.91;51.56
45253;BME280;63171;50.520;30.486;2023-07-20T03:17:27;99362.63;;;22.94;51.95
45253;BME280;63171;50.520;30.486;2023-07-20T03:18:18;99347.91;;;22.98;51.70
45253;BME280;63171;50.520;30.486;2023-07-20T03:19:08;99346.69;;;23.01;51.98
45253;BME280;63171;50.520;30.486;2023-07-20T03:19:59;99345.50;;;23.04;52.04
45253;BME280;63171;50.520;30.486;2023-07-20T03:20:49;99352.47;;;23.05;52.32
45253;BME280;63171;50.520;30.486;2023-07-20T03:21:39;99353.13;;;23.07;52.41
45253;BME280;63171;50.520;30.486;2023-07-20T03:22:31;99357.72;;;23.13;52.23
45253;BME280;63171;50.520;30.486;2023-07-20T03:23:21;99355.69;;;23.15;51.92
45253;BME280;63171;50.520;30.486;2023-07-20T03:24:11;99356.31;;;23.17;52.08
45253;BME280;63171;50.520;30.486;2023-07-20T03:25:01;99348.50;;;23.15;52.06
45253;BME280;63171;50.520;30.486;2023-07-20T03:25:51;99352.00;;;23.16;51.88
45253;BME280;63171;50.520;30.486;2023-07-20T03:26:44;99354.91;;;23.21;52.13
45253;BME280;63171;50.520;30.486;2023-07-20T03:27:35;99354.38;;;23.25;51.88
45253;BME280;63171;50.520;30.486;2023-07-20T03:28:25;99354.00;;;23.28;51.91
45253;BME280;63171;50.520;30.486;2023-07-20T03:29:16;99353.78;;;23.30;51.93
45253;BME280;63171;50.520;30.486;2023-07-20T03:30:08;99347.81;;;23.28;51.69
45253;BME280;63171;50.520;30.486;2023-07-20T03:30:59;99350.09;;;23.31;51.62
45253;BME280;63171;50.520;30.486;2023-07-20T03:31:50;99352.16;;;23.29;51.34
45253;BME280;63171;50.520;30.486;2023-07-20T03:32:41;99353.16;;;23.28;50.75
45253;BME280;63171;50.520;30.486;2023-07-20T03:33:33;99344.94;;;23.29;50.59
45253;BME280;63171;50.520;30.486;2023-07-20T03:34:23;99352.78;;;23.31;50.86
45253;BME280;63171;50.520;30.486;2023-07-20T03:35:14;99351.31;;;23.28;50.11
45253;BME280;63171;50.520;30.486;2023-07-20T03:36:05;99351.31;;;23.28;50.45
45253;BME280;63171;50.520;30.486;2023-07-20T03:36:56;99347.00;;;23.27;50.17
45253;BME280;63171;50.520;30.486;2023-07-20T03:37:46;99348.00;;;23.26;50.00
45253;BME280;63171;50.520;30.486;2023-07-20T03:38:36;99354.38;;;23.25;50.00
45253;BME280;63171;50.520;30.486;2023-07-20T03:39:26;99350.88;;;23.25;49.44
45253;BME280;63171;50.520;30.486;2023-07-20T03:40:17;99357.03;;;23.25;49.47
45253;BME280;63171;50.520;30.486;2023-07-20T03:41:07;99346.56;;;23.24;49.38
45253;BME280;63171;50.520;30.486;2023-07-20T03:41:57;99345.25;;;23.20;49.24
45253;BME280;63171;50.520;30.486;2023-07-20T03:42:48;99352.72;;;23.24;49.23
45253;BME280;63171;50.520;30.486;2023-07-20T03:43:38;99347.00;;;23.27;49.29
45253;BME280;63171;50.520;30.486;2023-07-20T03:44:28;99346.78;;;23.29;48.99
45253;BME280;63171;50.520;30.486;2023-07-20T03:45:20;99347.25;;;23.33;48.91
45253;BME280;63171;50.520;30.486;2023-07-20T03:46:10;99346.59;;;23.30;48.98
45253;BME280;63171;50.520;30.486;2023-07-20T03:47:02;99349.28;;;23.30;48.73
45253;BME280;63171;50.520;30.486;2023-07-20T03:47:54;99354.69;;;23.37;48.92
45253;BME280;63171;50.520;30.486;2023-07-20T03:48:45;99355.53;;;23.38;48.42
45253;BME280;63171;50.520;30.486;2023-07-20T03:49:35;99353.28;;;23.41;48.39
45253;BME280;63171;50.520;30.486;2023-07-20T03:50:26;99351.66;;;23.40;48.58
45253;BME280;63171;50.520;30.486;2023-07-20T03:51:16;99354.13;;;23.42;48.77
45253;BME280;63171;50.520;30.486;2023-07-20T03:52:05;99355.59;;;23.44;48.23
45253;BME280;63171;50.520;30.486;2023-07-20T03:52:56;99350.25;;;23.44;48.33
45253;BME280;63171;50.520;30.486;2023-07-20T03:53:46;99355.19;;;23.47;48.31
45253;BME280;63171;50.520;30.486;2023-07-20T03:54:36;99354.38;;;23.47;47.98
45253;BME280;63171;50.520;30.486;2023-07-20T03:55:26;99357.03;;;23.47;48.03
45253;BME280;63171;50.520;30.486;2023-07-20T03:56:17;99356.50;;;23.51;48.42
45253;BME280;63171;50.520;30.486;2023-07-20T03:57:07;99358.78;;;23.54;48.52
45253;BME280;63171;50.520;30.486;2023-07-20T03:57:58;99355.91;;;23.56;48.05
45253;BME280;63171;50.520;30.486;2023-07-20T03:58:49;99363.56;;;23.59;48.38
45253;BME280;63171;50.520;30.486;2023-07-20T03:59:39;99357.19;;;23.60;48.21
45253;BME280;63171;50.520;30.486;2023-07-20T04:00:31;99358.03;;;23.61;47.97
45253;BME280;63171;50.520;30.486;2023-07-20T04:01:21;99357.47;;;23.65;47.76
45253;BME280;63171;50.520;30.486;2023-07-20T04:02:11;99356.25;;;23.68;48.13
45253;BME280;63171;50.520;30.486;2023-07-20T04:03:01;99349.69;;;23.70;48.11
45253;BME280;63171;50.520;30.486;2023-07-20T04:03:53;99344.78;;;23.74;47.81
45253;BME280;63171;50.520;30.486;2023-07-20T04:04:43;99346.88;;;23.78;48.03
45253;BME280;63171;50.520;30.486;2023-07-20T04:05:33;99339.50;;;23.80;47.97
45253;BME280;63171;50.520;30.486;2023-07-20T04:06:23;99344.06;;;23.86;47.76
45253;BME280;63171;50.520;30.486;2023-07-20T04:07:14;99343.66;;;23.89;47.86
45253;BME280;63171;50.520;30.486;2023-07-20T04:08:06;99343.66;;;23.89;47.81
45253;BME280;63171;50.520;30.486;2023-07-20T04:08:56;99349.94;;;24.03;47.76
45253;BME280;63171;50.520;30.486;2023-07-20T04:09:46;99346.94;;;24.13;47.84
45253;BME280;63171;50.520;30.486;2023-07-20T04:10:36;99351.94;;;24.23;47.62
45253;BME280;63171;50.520;30.486;2023-07-20T04:11:27;99346.47;;;24.31;47.61
45253;BME280;63171;50.520;30.486;2023-07-20T04:12:17;99351.44;;;24.34;47.67
45253;BME280;63171;50.520;30.486;2023-07-20T04:13:06;99348.56;;;24.35;47.33
45253;BME280;63171;50.520;30.486;2023-07-20T04:13:57;99350.84;;;24.38;47.10
45253;BME280;63171;50.520;30.486;2023-07-20T04:14:47;99344.88;;;24.43;47.51
45253;BME280;63171;50.520;30.486;2023-07-20T04:15:38;99349.88;;;24.46;47.14
45253;BME280;63171;50.520;30.486;2023-07-20T04:16:28;99349.47;;;24.49;47.30
45253;BME280;63171;50.520;30.486;2023-07-20T04:17:19;99352.34;;;24.54;46.98
45253;BME280;63171;50.520;30.486;2023-07-20T04:18:09;99357.31;;;24.57;47.02
45253;BME280;63171;50.520;30.486;2023-07-20T04:19:01;99351.78;;;24.59;47.17
45253;BME280;63171;50.520;30.486;2023-07-20T04:19:51;99354.88;;;24.62;46.99
45253;BME280;63171;50.520;30.486;2023-07-20T04:20:41;99349.13;;;24.65;46.72
45253;BME280;63171;50.520;30.486;2023-07-20T04:21:31;99354.91;;;24.69;46.63
45253;BME280;63171;50.520;30.486;2023-07-20T04:22:22;99357.00;;;24.73;46.88
45253;BME280;63171;50.520;30.486;2023-07-20T04:23:13;99348.78;;;24.75;46.97
45253;BME280;63171;50.520;30.486;2023-07-20T04:24:02;99357.03;;;24.80;46.50
45253;BME280;63171;50.520;30.486;2023-07-20T04:24:54;99355.63;;;24.84;46.36
45253;BME280;63171;50.520;30.486;2023-07-20T04:25:43;99350.69;;;24.88;46.63
45253;BME280;63171;50.520;30.486;2023-07-20T04:26:35;99348.00;;;24.94;46.51
45253;BME280;63171;50.520;30.486;2023-07-20T04:27:26;99355.28;;;25.00;46.77
45253;BME280;63171;50.520;30.486;2023-07-20T04:28:16;99350.16;;;25.05;46.31
45253;BME280;63171;50.520;30.486;2023-07-20T04:29:11;99351.38;;;25.10;46.41
45253;BME280;63171;50.520;30.486;2023-07-20T04:30:07;99342.97;;;25.13;46.26
45253;BME280;63171;50.520;30.486;2023-07-20T04:31:09;99351.22;;;25.18;46.37